sensor_id;sensor_type;location;lat;lon;timestamp;temperature;humidity
957;DHT22;465;48.802;9.224;2022-08-14T00:02:02;21.00;59.50
957;DHT22;465;48.802;9.224;2022-08-14T00:04:30;21.00;59.70
957;DHT22;465;48.802;9.224;2022-08-14T00:06:57;21.00;60.00
957;DHT22;465;48.802;9.224;2022-08-14T00:09:24;20.90;60.10
957;DHT22;465;48.802;9.224;2022-08-14T00:11:50;20.90;60.30
957;DHT22;465;48.802;9.224;2022-08-14T00:14:17;20.90;60.60
957;DHT22;465;48.802;9.224;2022-08-14T00:16:45;20.80;60.70
957;DHT22;465;48.802;9.224;2022-08-14T00:19:15;20.70;61.10
957;DHT22;465;48.802;9.224;2022-08-14T00:21:42;20.60;61.80
957;DHT22;465;48.802;9.224;2022-08-14T00:24:09;20.70;62.00
957;DHT22;465;48.802;9.224;2022-08-14T00:26:36;20.70;62.00
957;DHT22;465;48.802;9.224;2022-08-14T00:29:03;20.70;62.00
957;DHT22;465;48.802;9.224;2022-08-14T00:31:29;20.50;62.20
957;DHT22;465;48.802;9.224;2022-08-14T00:33:56;20.40;62.90
957;DHT22;465;48.802;9.224;2022-08-14T00:36:25;20.50;63.10
957;DHT22;465;48.802;9.224;2022-08-14T00:38:51;20.50;63.10
957;DHT22;465;48.802;9.224;2022-08-14T00:41:18;20.40;63.40
957;DHT22;465;48.802;9.224;2022-08-14T00:43:45;20.30;64.00
957;DHT22;465;48.802;9.224;2022-08-14T00:46:12;20.40;64.40
957;DHT22;465;48.802;9.224;2022-08-14T00:48:39;20.30;64.50
957;DHT22;465;48.802;9.224;2022-08-14T00:51:08;20.30;64.80
957;DHT22;465;48.802;9.224;2022-08-14T00:53:37;20.30;65.00
957;DHT22;465;48.802;9.224;2022-08-14T00:56:05;20.30;64.70
957;DHT22;465;48.802;9.224;2022-08-14T00:58:32;20.20;65.20
957;DHT22;465;48.802;9.224;2022-08-14T01:01:03;20.10;65.50
957;DHT22;465;48.802;9.224;2022-08-14T01:03:30;20.10;65.70
957;DHT22;465;48.802;9.224;2022-08-14T01:06:08;20.10;66.10
957;DHT22;465;48.802;9.224;2022-08-14T01:08:37;20.10;66.40
957;DHT22;465;48.802;9.224;2022-08-14T01:11:05;20.10;66.90
957;DHT22;465;48.802;9.224;2022-08-14T01:13:33;20.00;67.60
957;DHT22;465;48.802;9.224;2022-08-14T01:16:04;19.90;68.20
957;DHT22;465;48.802;9.224;2022-08-14T01:18:31;19.80;68.80
957;DHT22;465;48.802;9.224;2022-08-14T01:21:20;19.80;69.60
957;DHT22;465;48.802;9.224;2022-08-14T01:23:49;19.80;69.70
957;DHT22;465;48.802;9.224;2022-08-14T01:26:19;19.80;70.10
957;DHT22;465;48.802;9.224;2022-08-14T01:28:49;19.80;70.10
957;DHT22;465;48.802;9.224;2022-08-14T01:31:21;19.80;70.20
957;DHT22;465;48.802;9.224;2022-08-14T01:33:50;19.70;70.50
957;DHT22;465;48.802;9.224;2022-08-14T01:36:19;19.60;70.80
957;DHT22;465;48.802;9.224;2022-08-14T01:38:47;19.50;71.40
957;DHT22;465;48.802;9.224;2022-08-14T01:41:16;19.60;72.00
957;DHT22;465;48.802;9.224;2022-08-14T01:43:46;19.50;72.30
957;DHT22;465;48.802;9.224;2022-08-14T01:46:15;19.40;73.00
957;DHT22;465;48.802;9.224;2022-08-14T01:48:42;19.30;73.00
957;DHT22;465;48.802;9.224;2022-08-14T01:51:11;19.30;73.60
957;DHT22;465;48.802;9.224;2022-08-14T01:53:39;19.20;73.90
957;DHT22;465;48.802;9.224;2022-08-14T01:56:08;19.30;74.10
957;DHT22;465;48.802;9.224;2022-08-14T01:58:35;19.30;74.30
957;DHT22;465;48.802;9.224;2022-08-14T02:01:03;19.40;74.40
957;DHT22;465;48.802;9.224;2022-08-14T02:03:37;19.40;74.20
957;DHT22;465;48.802;9.224;2022-08-14T02:06:05;19.40;74.30
957;DHT22;465;48.802;9.224;2022-08-14T02:08:32;19.40;74.50
957;DHT22;465;48.802;9.224;2022-08-14T02:11:03;19.40;74.60
957;DHT22;465;48.802;9.224;2022-08-14T02:13:46;19.40;74.90
957;DHT22;465;48.802;9.224;2022-08-14T02:16:16;19.30;74.90
957;DHT22;465;48.802;9.224;2022-08-14T02:18:44;19.30;74.80
957;DHT22;465;48.802;9.224;2022-08-14T02:21:11;19.20;74.40
957;DHT22;465;48.802;9.224;2022-08-14T02:23:43;19.20;74.70
957;DHT22;465;48.802;9.224;2022-08-14T02:26:16;19.20;74.70
957;DHT22;465;48.802;9.224;2022-08-14T02:28:45;19.20;74.90
957;DHT22;465;48.802;9.224;2022-08-14T02:31:12;19.20;74.80
957;DHT22;465;48.802;9.224;2022-08-14T02:33:40;19.10;75.10
957;DHT22;465;48.802;9.224;2022-08-14T02:36:08;19.10;75.60
957;DHT22;465;48.802;9.224;2022-08-14T02:38:35;19.00;76.30
957;DHT22;465;48.802;9.224;2022-08-14T02:41:04;18.90;76.30
957;DHT22;465;48.802;9.224;2022-08-14T02:43:33;18.90;76.10
957;DHT22;465;48.802;9.224;2022-08-14T02:46:01;18.90;76.00
957;DHT22;465;48.802;9.224;2022-08-14T02:48:28;18.90;76.70
957;DHT22;465;48.802;9.224;2022-08-14T02:51:01;18.80;77.10
957;DHT22;465;48.802;9.224;2022-08-14T02:53:29;18.70;77.90
957;DHT22;465;48.802;9.224;2022-08-14T02:55:56;18.70;78.50
957;DHT22;465;48.802;9.224;2022-08-14T02:58:25;18.60;78.80
957;DHT22;465;48.802;9.224;2022-08-14T03:00:52;18.60;79.20
957;DHT22;465;48.802;9.224;2022-08-14T03:03:21;18.50;79.60
957;DHT22;465;48.802;9.224;2022-08-14T03:05:49;18.50;80.20
957;DHT22;465;48.802;9.224;2022-08-14T03:08:17;18.40;80.40
957;DHT22;465;48.802;9.224;2022-08-14T03:10:44;18.40;81.00
957;DHT22;465;48.802;9.224;2022-08-14T03:13:11;18.40;81.40
957;DHT22;465;48.802;9.224;2022-08-14T03:15:38;18.40;81.70
957;DHT22;465;48.802;9.224;2022-08-14T03:18:10;18.30;81.70
957;DHT22;465;48.802;9.224;2022-08-14T03:20:38;18.30;82.10
957;DHT22;465;48.802;9.224;2022-08-14T03:23:05;18.30;82.40
957;DHT22;465;48.802;9.224;2022-08-14T03:25:32;18.40;82.10
957;DHT22;465;48.802;9.224;2022-08-14T03:28:01;18.40;81.60
957;DHT22;465;48.802;9.224;2022-08-14T03:30:29;18.40;81.70
957;DHT22;465;48.802;9.224;2022-08-14T03:32:57;18.30;82.20
957;DHT22;465;48.802;9.224;2022-08-14T03:35:24;18.20;83.10
957;DHT22;465;48.802;9.224;2022-08-14T03:37:52;18.10;83.60
957;DHT22;465;48.802;9.224;2022-08-14T03:40:19;18.10;84.30
957;DHT22;465;48.802;9.224;2022-08-14T03:42:46;18.10;84.70
957;DHT22;465;48.802;9.224;2022-08-14T03:45:13;18.00;85.20
957;DHT22;465;48.802;9.224;2022-08-14T03:47:41;18.00;85.30
957;DHT22;465;48.802;9.224;2022-08-14T03:50:09;18.00;85.60
957;DHT22;465;48.802;9.224;2022-08-14T03:52:37;18.00;86.00
957;DHT22;465;48.802;9.224;2022-08-14T03:55:09;17.90;86.00
957;DHT22;465;48.802;9.224;2022-08-14T03:57:37;17.90;86.90
957;DHT22;465;48.802;9.224;2022-08-14T04:00:06;17.90;86.30
957;DHT22;465;48.802;9.224;2022-08-14T04:02:35;17.80;86.60
957;DHT22;465;48.802;9.224;2022-08-14T04:05:02;17.80;87.00
957;DHT22;465;48.802;9.224;2022-08-14T04:07:29;17.70;87.50
957;DHT22;465;48.802;9.224;2022-08-14T04:09:56;17.70;87.80
957;DHT22;465;48.802;9.224;2022-08-14T04:12:24;17.80;87.70
957;DHT22;465;48.802;9.224;2022-08-14T04:14:51;17.80;87.80
957;DHT22;465;48.802;9.224;2022-08-14T04:17:18;17.90;87.70
957;DHT22;465;48.802;9.224;2022-08-14T04:19:45;17.90;87.80
957;DHT22;465;48.802;9.224;2022-08-14T04:22:12;17.90;88.40
957;DHT22;465;48.802;9.224;2022-08-14T04:24:39;17.80;88.70
957;DHT22;465;48.802;9.224;2022-08-14T04:27:09;17.80;88.90
957;DHT22;465;48.802;9.224;2022-08-14T04:29:38;17.80;89.50
957;DHT22;465;48.802;9.224;2022-08-14T04:32:06;17.80;89.60
957;DHT22;465;48.802;9.224;2022-08-14T04:34:33;17.80;89.60
957;DHT22;465;48.802;9.224;2022-08-14T04:37:02;17.80;89.80
957;DHT22;465;48.802;9.224;2022-08-14T04:39:46;17.80;89.60
957;DHT22;465;48.802;9.224;2022-08-14T04:42:30;17.80;89.80
957;DHT22;465;48.802;9.224;2022-08-14T04:45:15;17.80;90.00
957;DHT22;465;48.802;9.224;2022-08-14T04:47:42;17.70;90.10
957;DHT22;465;48.802;9.224;2022-08-14T04:50:27;17.80;90.10
957;DHT22;465;48.802;9.224;2022-08-14T04:52:54;17.90;90.10
957;DHT22;465;48.802;9.224;2022-08-14T04:55:21;17.90;90.00
957;DHT22;465;48.802;9.224;2022-08-14T04:57:48;18.00;90.10
957;DHT22;465;48.802;9.224;2022-08-14T05:00:16;18.30;89.80
957;DHT22;465;48.802;9.224;2022-08-14T05:02:43;18.60;88.30
957;DHT22;465;48.802;9.224;2022-08-14T05:05:10;19.00;86.30
957;DHT22;465;48.802;9.224;2022-08-14T05:07:37;19.40;84.00
957;DHT22;465;48.802;9.224;2022-08-14T05:10:04;19.90;81.40
957;DHT22;465;48.802;9.224;2022-08-14T05:12:31;20.20;79.10
957;DHT22;465;48.802;9.224;2022-08-14T05:14:58;20.50;77.40
957;DHT22;465;48.802;9.224;2022-08-14T05:17:26;20.70;75.60
957;DHT22;465;48.802;9.224;2022-08-14T05:19:53;21.00;74.50
957;DHT22;465;48.802;9.224;2022-08-14T05:22:20;21.30;72.60
957;DHT22;465;48.802;9.224;2022-08-14T05:24:47;21.60;70.70
957;DHT22;465;48.802;9.224;2022-08-14T05:27:14;21.60;69.40
957;DHT22;465;48.802;9.224;2022-08-14T05:29:45;21.50;69.10
957;DHT22;465;48.802;9.224;2022-08-14T05:32:12;21.70;68.70
957;DHT22;465;48.802;9.224;2022-08-14T05:34:42;21.90;67.70
957;DHT22;465;48.802;9.224;2022-08-14T05:37:08;22.20;66.80
957;DHT22;465;48.802;9.224;2022-08-14T05:39:35;22.30;65.10
957;DHT22;465;48.802;9.224;2022-08-14T05:42:04;22.30;64.60
957;DHT22;465;48.802;9.224;2022-08-14T05:44:31;22.00;65.20
957;DHT22;465;48.802;9.224;2022-08-14T05:46:58;21.80;65.90
957;DHT22;465;48.802;9.224;2022-08-14T05:49:25;21.60;65.50
957;DHT22;465;48.802;9.224;2022-08-14T05:51:53;21.60;65.70
957;DHT22;465;48.802;9.224;2022-08-14T05:54:19;21.70;65.90
957;DHT22;465;48.802;9.224;2022-08-14T05:56:46;21.70;65.70
957;DHT22;465;48.802;9.224;2022-08-14T05:59:13;22.10;65.20
957;DHT22;465;48.802;9.224;2022-08-14T06:01:40;22.20;63.70
957;DHT22;465;48.802;9.224;2022-08-14T06:04:06;22.60;63.40
957;DHT22;465;48.802;9.224;2022-08-14T06:06:33;22.90;61.80
957;DHT22;465;48.802;9.224;2022-08-14T06:09:01;23.40;60.10
957;DHT22;465;48.802;9.224;2022-08-14T06:11:28;23.60;59.20
957;DHT22;465;48.802;9.224;2022-08-14T06:13:55;23.80;59.00
957;DHT22;465;48.802;9.224;2022-08-14T06:16:22;24.00;58.90
957;DHT22;465;48.802;9.224;2022-08-14T06:18:49;24.00;58.90
957;DHT22;465;48.802;9.224;2022-08-14T06:21:16;24.00;58.60
957;DHT22;465;48.802;9.224;2022-08-14T06:23:43;24.20;58.10
957;DHT22;465;48.802;9.224;2022-08-14T06:26:11;24.10;58.20
957;DHT22;465;48.802;9.224;2022-08-14T06:28:38;24.30;58.30
957;DHT22;465;48.802;9.224;2022-08-14T06:31:05;24.60;57.70
957;DHT22;465;48.802;9.224;2022-08-14T06:33:31;25.10;56.70
957;DHT22;465;48.802;9.224;2022-08-14T06:35:58;25.30;55.50
957;DHT22;465;48.802;9.224;2022-08-14T06:38:25;25.70;54.70
957;DHT22;465;48.802;9.224;2022-08-14T06:40:52;26.30;53.80
957;DHT22;465;48.802;9.224;2022-08-14T06:43:20;26.50;52.40
957;DHT22;465;48.802;9.224;2022-08-14T06:45:48;26.90;51.10
957;DHT22;465;48.802;9.224;2022-08-14T06:48:17;27.10;50.30
957;DHT22;465;48.802;9.224;2022-08-14T06:50:44;27.50;49.90
957;DHT22;465;48.802;9.224;2022-08-14T06:53:11;28.10;48.70
957;DHT22;465;48.802;9.224;2022-08-14T06:55:39;28.50;47.90
957;DHT22;465;48.802;9.224;2022-08-14T06:58:10;28.70;47.20
957;DHT22;465;48.802;9.224;2022-08-14T07:00:40;29.10;46.30
957;DHT22;465;48.802;9.224;2022-08-14T07:03:29;29.50;45.70
957;DHT22;465;48.802;9.224;2022-08-14T07:06:14;30.40;44.30
957;DHT22;465;48.802;9.224;2022-08-14T07:08:42;30.30;43.10
957;DHT22;465;48.802;9.224;2022-08-14T07:11:09;30.20;43.20
957;DHT22;465;48.802;9.224;2022-08-14T07:13:36;30.80;42.20
957;DHT22;465;48.802;9.224;2022-08-14T07:16:05;31.00;42.20
957;DHT22;465;48.802;9.224;2022-08-14T07:18:34;31.50;41.40
957;DHT22;465;48.802;9.224;2022-08-14T07:21:03;31.90;40.10
957;DHT22;465;48.802;9.224;2022-08-14T07:23:30;32.50;39.60
957;DHT22;465;48.802;9.224;2022-08-14T07:25:58;32.20;39.70
957;DHT22;465;48.802;9.224;2022-08-14T07:28:28;32.50;39.90
957;DHT22;465;48.802;9.224;2022-08-14T07:30:56;32.70;38.90
957;DHT22;465;48.802;9.224;2022-08-14T07:33:26;32.50;38.50
957;DHT22;465;48.802;9.224;2022-08-14T07:35:54;32.10;39.90
957;DHT22;465;48.802;9.224;2022-08-14T07:38:22;32.10;39.60
957;DHT22;465;48.802;9.224;2022-08-14T07:40:50;32.90;38.90
957;DHT22;465;48.802;9.224;2022-08-14T07:43:17;33.00;38.00
957;DHT22;465;48.802;9.224;2022-08-14T07:45:44;32.40;38.20
957;DHT22;465;48.802;9.224;2022-08-14T07:48:11;32.20;39.20
957;DHT22;465;48.802;9.224;2022-08-14T07:50:39;32.10;39.40
957;DHT22;465;48.802;9.224;2022-08-14T07:53:06;32.50;39.30
957;DHT22;465;48.802;9.224;2022-08-14T07:55:33;33.40;37.90
957;DHT22;465;48.802;9.224;2022-08-14T07:58:00;34.40;36.60
957;DHT22;465;48.802;9.224;2022-08-14T08:00:26;35.10;35.60
957;DHT22;465;48.802;9.224;2022-08-14T08:02:55;35.70;35.60
957;DHT22;465;48.802;9.224;2022-08-14T08:05:24;36.50;33.90
957;DHT22;465;48.802;9.224;2022-08-14T08:07:53;36.70;33.40
957;DHT22;465;48.802;9.224;2022-08-14T08:10:22;36.50;32.60
957;DHT22;465;48.802;9.224;2022-08-14T08:13:00;36.90;32.20
957;DHT22;465;48.802;9.224;2022-08-14T08:15:28;37.40;31.80
957;DHT22;465;48.802;9.224;2022-08-14T08:17:57;37.60;31.50
957;DHT22;465;48.802;9.224;2022-08-14T08:20:25;37.60;31.20
957;DHT22;465;48.802;9.224;2022-08-14T08:22:54;37.60;31.40
957;DHT22;465;48.802;9.224;2022-08-14T08:25:23;38.50;30.30
957;DHT22;465;48.802;9.224;2022-08-14T08:27:57;38.60;30.50
957;DHT22;465;48.802;9.224;2022-08-14T08:30:24;39.00;29.90
957;DHT22;465;48.802;9.224;2022-08-14T08:32:52;38.90;29.70
957;DHT22;465;48.802;9.224;2022-08-14T08:35:20;38.70;30.00
957;DHT22;465;48.802;9.224;2022-08-14T08:37:48;39.50;29.50
957;DHT22;465;48.802;9.224;2022-08-14T08:40:24;39.80;28.80
957;DHT22;465;48.802;9.224;2022-08-14T08:42:51;40.80;28.20
957;DHT22;465;48.802;9.224;2022-08-14T08:45:20;41.40;27.90
957;DHT22;465;48.802;9.224;2022-08-14T08:47:47;41.30;27.30
957;DHT22;465;48.802;9.224;2022-08-14T08:50:16;41.70;27.10
957;DHT22;465;48.802;9.224;2022-08-14T08:52:49;41.40;27.20
957;DHT22;465;48.802;9.224;2022-08-14T08:55:24;41.00;27.60
957;DHT22;465;48.802;9.224;2022-08-14T08:57:56;40.40;27.70
957;DHT22;465;48.802;9.224;2022-08-14T09:00:24;39.70;28.10
957;DHT22;465;48.802;9.224;2022-08-14T09:02:57;38.80;28.50
957;DHT22;465;48.802;9.224;2022-08-14T09:05:26;38.80;28.20
957;DHT22;465;48.802;9.224;2022-08-14T09:07:53;39.80;27.90
957;DHT22;465;48.802;9.224;2022-08-14T09:10:20;39.50;27.40
957;DHT22;465;48.802;9.224;2022-08-14T09:12:48;39.90;27.00
957;DHT22;465;48.802;9.224;2022-08-14T09:15:14;39.90;26.80
957;DHT22;465;48.802;9.224;2022-08-14T09:17:42;40.10;27.20
957;DHT22;465;48.802;9.224;2022-08-14T09:20:10;40.90;26.30
957;DHT22;465;48.802;9.224;2022-08-14T09:22:39;41.70;25.60
957;DHT22;465;48.802;9.224;2022-08-14T09:25:07;41.60;25.30
957;DHT22;465;48.802;9.224;2022-08-14T09:27:35;41.40;25.00
957;DHT22;465;48.802;9.224;2022-08-14T09:30:05;41.00;24.70
957;DHT22;465;48.802;9.224;2022-08-14T09:32:40;40.60;24.90
957;DHT22;465;48.802;9.224;2022-08-14T09:35:16;39.70;24.70
957;DHT22;465;48.802;9.224;2022-08-14T09:37:53;39.90;25.90
957;DHT22;465;48.802;9.224;2022-08-14T09:40:31;40.00;25.70
957;DHT22;465;48.802;9.224;2022-08-14T09:43:09;40.70;25.30
957;DHT22;465;48.802;9.224;2022-08-14T09:45:48;40.80;25.60
957;DHT22;465;48.802;9.224;2022-08-14T09:48:16;41.90;24.60
957;DHT22;465;48.802;9.224;2022-08-14T09:50:47;40.90;24.90
957;DHT22;465;48.802;9.224;2022-08-14T09:53:17;40.80;24.90
957;DHT22;465;48.802;9.224;2022-08-14T09:55:44;40.80;25.20
957;DHT22;465;48.802;9.224;2022-08-14T09:58:13;40.40;25.10
957;DHT22;465;48.802;9.224;2022-08-14T10:00:46;41.30;25.00
957;DHT22;465;48.802;9.224;2022-08-14T10:03:25;41.50;24.40
957;DHT22;465;48.802;9.224;2022-08-14T10:06:03;41.10;24.30
957;DHT22;465;48.802;9.224;2022-08-14T10:08:39;39.70;25.60
957;DHT22;465;48.802;9.224;2022-08-14T10:11:12;40.10;25.60
957;DHT22;465;48.802;9.224;2022-08-14T10:13:45;40.30;25.10
957;DHT22;465;48.802;9.224;2022-08-14T10:16:13;40.50;25.10
957;DHT22;465;48.802;9.224;2022-08-14T10:18:41;40.10;25.50
957;DHT22;465;48.802;9.224;2022-08-14T10:21:15;39.30;25.80
957;DHT22;465;48.802;9.224;2022-08-14T10:23:45;38.10;27.10
957;DHT22;465;48.802;9.224;2022-08-14T10:26:16;38.30;27.40
957;DHT22;465;48.802;9.224;2022-08-14T10:28:48;38.60;26.80
957;DHT22;465;48.802;9.224;2022-08-14T10:31:21;39.40;26.10
957;DHT22;465;48.802;9.224;2022-08-14T10:34:01;40.10;25.30
957;DHT22;465;48.802;9.224;2022-08-14T10:36:29;40.20;25.30
957;DHT22;465;48.802;9.224;2022-08-14T10:38:59;40.20;25.40
957;DHT22;465;48.802;9.224;2022-08-14T10:41:35;40.10;25.50
957;DHT22;465;48.802;9.224;2022-08-14T10:44:11;40.80;25.00
957;DHT22;465;48.802;9.224;2022-08-14T10:46:42;40.10;25.40
957;DHT22;465;48.802;9.224;2022-08-14T10:49:23;40.10;25.30
957;DHT22;465;48.802;9.224;2022-08-14T10:51:55;41.20;24.50
957;DHT22;465;48.802;9.224;2022-08-14T10:54:32;41.00;24.40
957;DHT22;465;48.802;9.224;2022-08-14T10:57:14;40.90;24.00
957;DHT22;465;48.802;9.224;2022-08-14T10:59:42;41.80;24.00
957;DHT22;465;48.802;9.224;2022-08-14T11:02:20;42.20;23.40
957;DHT22;465;48.802;9.224;2022-08-14T11:05:02;42.30;23.30
957;DHT22;465;48.802;9.224;2022-08-14T11:07:30;42.30;23.20
957;DHT22;465;48.802;9.224;2022-08-14T11:09:58;42.70;23.00
957;DHT22;465;48.802;9.224;2022-08-14T11:12:26;41.70;23.50
957;DHT22;465;48.802;9.224;2022-08-14T11:15:04;41.70;23.80
957;DHT22;465;48.802;9.224;2022-08-14T11:17:33;41.60;23.60
957;DHT22;465;48.802;9.224;2022-08-14T11:20:08;42.40;23.20
957;DHT22;465;48.802;9.224;2022-08-14T11:22:37;43.20;22.60
957;DHT22;465;48.802;9.224;2022-08-14T11:25:08;43.70;22.10
957;DHT22;465;48.802;9.224;2022-08-14T11:27:37;42.80;22.10
957;DHT22;465;48.802;9.224;2022-08-14T11:30:06;42.90;22.50
957;DHT22;465;48.802;9.224;2022-08-14T11:32:38;41.10;23.10
957;DHT22;465;48.802;9.224;2022-08-14T11:35:11;40.90;24.10
957;DHT22;465;48.802;9.224;2022-08-14T11:37:48;40.50;24.00
957;DHT22;465;48.802;9.224;2022-08-14T11:40:17;41.00;23.50
957;DHT22;465;48.802;9.224;2022-08-14T11:42:45;41.90;23.00
957;DHT22;465;48.802;9.224;2022-08-14T11:45:13;41.70;22.70
957;DHT22;465;48.802;9.224;2022-08-14T11:47:42;39.60;23.30
957;DHT22;465;48.802;9.224;2022-08-14T11:50:14;38.60;24.70
957;DHT22;465;48.802;9.224;2022-08-14T11:52:45;38.80;24.80
957;DHT22;465;48.802;9.224;2022-08-14T11:55:18;38.10;25.10
957;DHT22;465;48.802;9.224;2022-08-14T11:57:59;39.60;25.20
957;DHT22;465;48.802;9.224;2022-08-14T12:00:27;40.60;23.10
957;DHT22;465;48.802;9.224;2022-08-14T12:02:58;42.00;22.60
957;DHT22;465;48.802;9.224;2022-08-14T12:05:29;43.00;22.10
957;DHT22;465;48.802;9.224;2022-08-14T12:07:57;41.80;22.60
957;DHT22;465;48.802;9.224;2022-08-14T12:10:24;41.70;22.70
957;DHT22;465;48.802;9.224;2022-08-14T12:12:51;42.50;22.30
957;DHT22;465;48.802;9.224;2022-08-14T12:15:31;41.90;21.80
957;DHT22;465;48.802;9.224;2022-08-14T12:18:03;42.00;22.50
957;DHT22;465;48.802;9.224;2022-08-14T12:20:32;42.80;22.40
957;DHT22;465;48.802;9.224;2022-08-14T12:23:03;44.30;21.40
957;DHT22;465;48.802;9.224;2022-08-14T12:25:30;44.90;20.20
957;DHT22;465;48.802;9.224;2022-08-14T12:27:58;44.80;19.80
957;DHT22;465;48.802;9.224;2022-08-14T12:30:32;44.60;19.80
957;DHT22;465;48.802;9.224;2022-08-14T12:32:59;44.00;19.90
957;DHT22;465;48.802;9.224;2022-08-14T12:35:40;43.40;20.70
957;DHT22;465;48.802;9.224;2022-08-14T12:38:09;41.90;21.30
957;DHT22;465;48.802;9.224;2022-08-14T12:40:45;42.10;21.40
957;DHT22;465;48.802;9.224;2022-08-14T12:43:12;43.10;21.00
957;DHT22;465;48.802;9.224;2022-08-14T12:45:45;44.90;20.10
957;DHT22;465;48.802;9.224;2022-08-14T12:48:15;44.70;19.40
957;DHT22;465;48.802;9.224;2022-08-14T12:50:45;45.10;19.70
957;DHT22;465;48.802;9.224;2022-08-14T12:53:14;44.50;18.40
957;DHT22;465;48.802;9.224;2022-08-14T12:55:43;43.20;20.00
957;DHT22;465;48.802;9.224;2022-08-14T12:58:11;40.70;20.70
957;DHT22;465;48.802;9.224;2022-08-14T13:00:47;39.60;22.10
957;DHT22;465;48.802;9.224;2022-08-14T13:03:22;40.00;21.80
957;DHT22;465;48.802;9.224;2022-08-14T13:05:51;41.00;21.20
957;DHT22;465;48.802;9.224;2022-08-14T13:08:20;41.10;21.00
957;DHT22;465;48.802;9.224;2022-08-14T13:10:51;40.40;21.80
957;DHT22;465;48.802;9.224;2022-08-14T13:13:19;41.10;21.40
957;DHT22;465;48.802;9.224;2022-08-14T13:15:47;41.50;21.40
957;DHT22;465;48.802;9.224;2022-08-14T13:18:18;41.60;21.50
957;DHT22;465;48.802;9.224;2022-08-14T13:20:48;41.80;21.00
957;DHT22;465;48.802;9.224;2022-08-14T13:23:17;43.00;20.50
957;DHT22;465;48.802;9.224;2022-08-14T13:25:49;43.60;19.50
957;DHT22;465;48.802;9.224;2022-08-14T13:28:19;44.40;19.50
957;DHT22;465;48.802;9.224;2022-08-14T13:30:48;44.30;19.10
957;DHT22;465;48.802;9.224;2022-08-14T13:33:15;43.10;18.90
957;DHT22;465;48.802;9.224;2022-08-14T13:35:47;41.70;20.00
957;DHT22;465;48.802;9.224;2022-08-14T13:38:17;42.80;20.60
957;DHT22;465;48.802;9.224;2022-08-14T13:40:44;43.20;20.10
957;DHT22;465;48.802;9.224;2022-08-14T13:43:12;43.10;20.40
957;DHT22;465;48.802;9.224;2022-08-14T13:45:39;42.70;20.10
957;DHT22;465;48.802;9.224;2022-08-14T13:48:06;41.70;20.40
957;DHT22;465;48.802;9.224;2022-08-14T13:50:34;42.10;20.40
957;DHT22;465;48.802;9.224;2022-08-14T13:53:05;42.20;20.20
957;DHT22;465;48.802;9.224;2022-08-14T13:55:35;43.60;19.70
957;DHT22;465;48.802;9.224;2022-08-14T13:58:02;44.30;19.40
957;DHT22;465;48.802;9.224;2022-08-14T14:00:31;43.40;18.50
957;DHT22;465;48.802;9.224;2022-08-14T14:02:59;41.20;19.50
957;DHT22;465;48.802;9.224;2022-08-14T14:05:26;40.10;20.60
957;DHT22;465;48.802;9.224;2022-08-14T14:07:53;39.30;21.10
957;DHT22;465;48.802;9.224;2022-08-14T14:10:21;40.30;20.70
957;DHT22;465;48.802;9.224;2022-08-14T14:12:50;40.50;20.20
957;DHT22;465;48.802;9.224;2022-08-14T14:15:19;40.60;19.90
957;DHT22;465;48.802;9.224;2022-08-14T14:17:46;40.10;20.00
957;DHT22;465;48.802;9.224;2022-08-14T14:20:15;40.80;20.10
957;DHT22;465;48.802;9.224;2022-08-14T14:22:44;40.60;19.70
957;DHT22;465;48.802;9.224;2022-08-14T14:25:13;40.00;20.40
957;DHT22;465;48.802;9.224;2022-08-14T14:27:41;41.00;20.20
957;DHT22;465;48.802;9.224;2022-08-14T14:30:12;40.50;20.00
957;DHT22;465;48.802;9.224;2022-08-14T14:32:40;40.90;20.00
957;DHT22;465;48.802;9.224;2022-08-14T14:35:11;41.40;19.70
957;DHT22;465;48.802;9.224;2022-08-14T14:37:40;41.50;19.80
957;DHT22;465;48.802;9.224;2022-08-14T14:40:09;40.90;19.90
957;DHT22;465;48.802;9.224;2022-08-14T14:42:43;41.30;19.80
957;DHT22;465;48.802;9.224;2022-08-14T14:45:14;41.40;19.70
957;DHT22;465;48.802;9.224;2022-08-14T14:47:44;40.40;20.20
957;DHT22;465;48.802;9.224;2022-08-14T14:50:11;40.50;20.20
957;DHT22;465;48.802;9.224;2022-08-14T14:52:39;40.90;19.80
957;DHT22;465;48.802;9.224;2022-08-14T14:55:09;40.90;19.40
957;DHT22;465;48.802;9.224;2022-08-14T14:57:37;40.30;20.20
957;DHT22;465;48.802;9.224;2022-08-14T15:00:07;39.80;20.80
957;DHT22;465;48.802;9.224;2022-08-14T15:02:38;39.80;20.90
957;DHT22;465;48.802;9.224;2022-08-14T15:05:06;39.40;21.20
957;DHT22;465;48.802;9.224;2022-08-14T15:07:34;38.70;21.80
957;DHT22;465;48.802;9.224;2022-08-14T15:10:01;37.90;22.60
957;DHT22;465;48.802;9.224;2022-08-14T15:12:28;36.60;23.40
957;DHT22;465;48.802;9.224;2022-08-14T15:14:55;36.00;23.70
957;DHT22;465;48.802;9.224;2022-08-14T15:17:21;35.70;24.00
957;DHT22;465;48.802;9.224;2022-08-14T15:19:50;35.30;24.30
957;DHT22;465;48.802;9.224;2022-08-14T15:22:18;34.90;24.70
957;DHT22;465;48.802;9.224;2022-08-14T15:24:45;34.70;25.40
957;DHT22;465;48.802;9.224;2022-08-14T15:27:13;34.50;25.80
957;DHT22;465;48.802;9.224;2022-08-14T15:29:39;34.40;25.50
957;DHT22;465;48.802;9.224;2022-08-14T15:32:07;34.30;25.60
957;DHT22;465;48.802;9.224;2022-08-14T15:34:35;34.20;26.10
957;DHT22;465;48.802;9.224;2022-08-14T15:37:04;34.20;26.10
957;DHT22;465;48.802;9.224;2022-08-14T15:39:32;34.00;25.70
957;DHT22;465;48.802;9.224;2022-08-14T15:41:59;34.10;25.60
957;DHT22;465;48.802;9.224;2022-08-14T15:44:28;34.20;26.00
957;DHT22;465;48.802;9.224;2022-08-14T15:46:55;34.20;25.50
957;DHT22;465;48.802;9.224;2022-08-14T15:49:22;34.30;25.50
957;DHT22;465;48.802;9.224;2022-08-14T15:51:52;34.40;25.60
957;DHT22;465;48.802;9.224;2022-08-14T15:57:43;34.30;26.40
957;DHT22;465;48.802;9.224;2022-08-14T16:00:11;34.20;26.10
957;DHT22;465;48.802;9.224;2022-08-14T16:02:55;34.00;26.30
957;DHT22;465;48.802;9.224;2022-08-14T16:08:46;33.60;25.60
957;DHT22;465;48.802;9.224;2022-08-14T16:11:13;33.50;26.00
957;DHT22;465;48.802;9.224;2022-08-14T16:13:41;33.60;26.20
957;DHT22;465;48.802;9.224;2022-08-14T16:16:14;33.60;26.10
957;DHT22;465;48.802;9.224;2022-08-14T16:18:42;33.70;25.80
957;DHT22;465;48.802;9.224;2022-08-14T16:21:12;33.70;25.90
957;DHT22;465;48.802;9.224;2022-08-14T16:23:40;33.70;26.10
957;DHT22;465;48.802;9.224;2022-08-14T16:26:09;33.70;26.00
957;DHT22;465;48.802;9.224;2022-08-14T16:28:38;33.80;26.10
957;DHT22;465;48.802;9.224;2022-08-14T16:31:06;33.80;26.30
957;DHT22;465;48.802;9.224;2022-08-14T16:33:33;33.80;26.10
957;DHT22;465;48.802;9.224;2022-08-14T16:36:02;33.70;26.10
957;DHT22;465;48.802;9.224;2022-08-14T16:38:29;33.60;26.20
957;DHT22;465;48.802;9.224;2022-08-14T16:41:00;33.50;26.20
957;DHT22;465;48.802;9.224;2022-08-14T16:43:45;33.30;26.30
957;DHT22;465;48.802;9.224;2022-08-14T16:46:16;33.20;26.40
957;DHT22;465;48.802;9.224;2022-08-14T16:48:44;33.20;27.20
957;DHT22;465;48.802;9.224;2022-08-14T16:51:12;33.10;27.10
957;DHT22;465;48.802;9.224;2022-08-14T16:53:41;33.00;27.00
957;DHT22;465;48.802;9.224;2022-08-14T16:56:10;33.00;27.00